Etusivu
METAR-TAF:

METAR-TAF

Lentoasemat :

Malekula, Vanuatu

Leveyspiiri: 16-27-26S, Pituuspiiri: 167-49-42E, korkeus merenpinnasta: 2 m

METAR: puuttuu

Aika: 11:22 (00:22 UTC)

Sääennuste

Tämä raportti tehtiin 1 tunti ja 22 minuuttia sitten, kello 23.00 UTC
Ennuste voimassa 24. päivästä klo 00 UTC - 24. päivään klo 24 UTC
Tuuli 6 kn pohjoisen/luoteesta
Näkyvyys: 9000 m
Hajanaisia pilviä 2000 ft:n korkeudessa
Hajonneita pilviä 1800 ft:n korkeudessa
vesikuuroja,

TAF: NVSL 232300Z 2400/2424 34006KT 9999 SCT020 INTER 2400/2406 9000 SHRA BKN018

Säähavainnot ja -ennusteet yli 4000 lentoasemalta (METAR- ja TAF-raportit).

Käytössä olevat sääasemat on merkitty karttaan keltaisilla ja punaisilla pisteillä.

Aseta hiiri pisteen päälle nähdäksesi sääaseman nimen.

Klikkaa sitten nähdäksesi säähavainnot ja -ennusteet.

Kartan vaihtaminen: klikkaa mustalla rastilla varustettuja vihreitä pisteitä, niin voit zoomata sisään; viivalla varustettua vihreää pistettä, niin voit zoomata ulos tai vihreitä nuolia, niin pääset viereisille kartoille.


METAR-TAF: